01:54 MTB Moetz - Roppen - Oetztal Trail - Stams oben - Pfaffenhofen - MSC - Moetz
Ort Moetz Datum 19.08.2017 16:19:00
Kategorie MTB
Distanz 50,09 Kilometer Steigung 314,0 Meter Gefälle -314,0 Meter
Gesamt Zeit 01:54:26 Aktiv 01:54:26 Pause 00:00:00
Durchs. Tempo 26,3 km/h Tempo max. 44,6 km/h Tempo min. 10,7 km/h
Kalorien 0 Durchs. HF 120 BPM HF max. 140 BPM
Wetter 17 °C Clouds Min/Max: 16,3 °C/17,1 °C; Druck: 1021,0 mbar; Rel. Feuchte: 83,3%; Taupunkt: 13,8 °C; Windgeschwindigkeit: 3,6 km/h
Ausrüstung BMC - Teamelite 02 XT 2016 XL
Bontrager - Race X Lite MTB
Notiz Moetz - Roppen - Oetztal Trail - Stams oben - Pfaffenhofen - MSC - Moetz ... tw. nass, nicht warm, leichter Wind - eher locker ... Oetztaltrail 4:20,8 - 1,55 - 21,4 - 128 - 75 ... garmin connect
Splits
Distanz (km) Gesamt Zeit Split Zeit Split Tempo Split Tempo Höhenprofil (m)
1,00 00:02:24 00:02:24 00:02:25 24,9 -1,11
2,00 00:04:27 00:02:02 00:02:03 29,4 2,48
3,00 00:06:30 00:02:03 00:02:03 29,2 5,65
4,00 00:08:22 00:01:52 00:01:52 32,1 0,83
5,00 00:10:19 00:01:56 00:01:56 30,9 -1,60
6,00 00:12:13 00:01:53 00:01:54 31,6 3,43
7,00 00:14:25 00:02:12 00:02:13 27,1 11,76
8,00 00:17:54 00:03:28 00:03:28 17,3 46,55
9,00 00:20:15 00:02:20 00:02:21 25,6 -7,13
10,00 00:21:56 00:01:41 00:01:41 35,5 -16,21
11,00 00:23:41 00:01:45 00:01:45 34,1 -16,73
12,00 00:26:29 00:02:47 00:02:48 21,5 22,56
13,00 00:28:51 00:02:22 00:02:22 25,3 -5,24
14,00 00:31:24 00:02:32 00:02:32 23,6 1,00
15,00 00:33:56 00:02:31 00:02:32 23,7 -4,95
16,00 00:36:30 00:02:34 00:02:34 23,3 3,36
17,00 00:38:36 00:02:06 00:02:06 28,5 -3,47
18,00 00:40:52 00:02:15 00:02:16 26,5 -9,20
19,00 00:43:48 00:02:55 00:02:56 20,5 7,10
20,00 00:46:23 00:02:34 00:02:35 23,3 -18,04
21,00 00:48:39 00:02:16 00:02:16 26,4 -9,86
22,00 00:50:53 00:02:14 00:02:15 26,7 1,00
23,00 00:53:52 00:02:58 00:02:58 20,2 2,44
24,00 00:55:56 00:02:04 00:02:05 28,8 -1,76
25,00 00:58:05 00:02:08 00:02:08 28,1 1,38
26,00 01:00:05 00:02:00 00:02:00 29,9 -10,04
27,00 01:02:19 00:02:13 00:02:14 26,9 -4,34
28,00 01:04:31 00:02:12 00:02:13 27,1 -2,67
29,00 01:06:36 00:02:04 00:02:04 29,0 -4,80
30,00 01:09:00 00:02:23 00:02:24 25,0 9,31
31,00 01:11:59 00:02:59 00:02:59 20,1 19,50
32,00 01:13:44 00:01:45 00:01:45 34,3 -19,01
33,00 01:17:16 00:03:31 00:03:32 17,0 35,38
34,00 01:19:58 00:02:42 00:02:42 22,2 7,00
35,00 01:22:03 00:02:04 00:02:05 28,9 -19,14
36,00 01:23:29 00:01:25 00:01:26 42,1 -40,59
37,00 01:25:23 00:01:54 00:01:54 31,4 -6,77
38,00 01:27:36 00:02:13 00:02:13 27,1 -5,01
39,00 01:30:06 00:02:29 00:02:30 24,0 -2,02
40,00 01:32:10 00:02:04 00:02:04 28,9 1,78
41,00 01:34:16 00:02:05 00:02:05 28,8 2,86
42,00 01:36:29 00:02:13 00:02:13 27,0 -3,42
43,00 01:38:42 00:02:13 00:02:13 27,0 1,74
44,00 01:40:53 00:02:10 00:02:11 27,5 2,64
45,00 01:43:06 00:02:13 00:02:13 27,1 2,80
46,00 01:45:21 00:02:14 00:02:15 26,7 2,38
47,00 01:47:45 00:02:24 00:02:24 25,0 3,22
48,00 01:49:38 00:01:53 00:01:53 31,8 3,86
49,00 01:51:33 00:01:54 00:01:55 31,4 0,83
50,00 01:53:55 00:02:22 00:02:22 25,3 15,71
50,19 01:54:26 00:00:30 00:02:38 22,8 -1,97